Holly Pond, Alabama
Current Conditions -  °F | °C
As of 11:55 PM on Saturday 25 Oct 2014 (Local Time) from KCMD Reporting Station
Haze Haze  
Wind Chill: 59°   Ceiling: Unl
Heat Index: 59°   Visibility: 4mi
Dew Point: 59°   Wind: 0mph
Humidity: 98%   Direction: NA
Pressure: 30.07"   Gusts: NA
Location:  34.17°N, 86.62°W
Report Text: KCMD 260455Z AUTO 00000KT 4SM BR CLR 15/15 A3007 RMK AO2 T01520149
Loading
Personal Weather Stations






























Interactive Weather Map
Tropical Storm Tracking
New forecast layout! Learn more

10-Day Weather Forecast

Advertisements
Track Severe Weather on mobile